sensor_id;sensor_type;location;lat;lon;timestamp;temperature;humidity
1988;DHT22;12775;46.994;15.498;2023-02-02T00:00:35;6.10;80.40
1988;DHT22;12775;46.994;15.498;2023-02-02T00:03:03;6.00;80.70
1988;DHT22;12775;46.994;15.498;2023-02-02T00:05:30;6.00;80.70
1988;DHT22;12775;46.994;15.498;2023-02-02T00:07:57;6.00;80.40
1988;DHT22;12775;46.994;15.498;2023-02-02T00:10:24;6.00;80.90
1988;DHT22;12775;46.994;15.498;2023-02-02T00:12:52;6.00;79.00
1988;DHT22;12775;46.994;15.498;2023-02-02T00:15:19;5.90;79.40
1988;DHT22;12775;46.994;15.498;2023-02-02T00:17:46;5.90;80.20
1988;DHT22;12775;46.994;15.498;2023-02-02T00:20:14;5.90;80.10
1988;DHT22;12775;46.994;15.498;2023-02-02T00:22:42;5.90;79.20
1988;DHT22;12775;46.994;15.498;2023-02-02T00:25:09;5.90;78.80
1988;DHT22;12775;46.994;15.498;2023-02-02T00:27:36;5.90;79.10
1988;DHT22;12775;46.994;15.498;2023-02-02T00:30:05;5.90;79.10
1988;DHT22;12775;46.994;15.498;2023-02-02T00:32:31;5.90;79.00
1988;DHT22;12775;46.994;15.498;2023-02-02T00:34:58;6.00;80.10
1988;DHT22;12775;46.994;15.498;2023-02-02T00:37:25;5.90;80.60
1988;DHT22;12775;46.994;15.498;2023-02-02T00:39:53;5.90;79.90
1988;DHT22;12775;46.994;15.498;2023-02-02T00:42:20;5.90;79.90
1988;DHT22;12775;46.994;15.498;2023-02-02T00:44:47;5.90;80.10
1988;DHT22;12775;46.994;15.498;2023-02-02T00:47:20;5.90;80.10
1988;DHT22;12775;46.994;15.498;2023-02-02T00:49:48;5.90;79.70
1988;DHT22;12775;46.994;15.498;2023-02-02T00:52:15;5.80;80.20
1988;DHT22;12775;46.994;15.498;2023-02-02T00:54:42;5.80;80.10
1988;DHT22;12775;46.994;15.498;2023-02-02T00:57:12;5.80;79.80
1988;DHT22;12775;46.994;15.498;2023-02-02T00:59:40;5.90;80.00
1988;DHT22;12775;46.994;15.498;2023-02-02T01:02:08;5.90;79.80
1988;DHT22;12775;46.994;15.498;2023-02-02T01:04:34;5.90;78.90
1988;DHT22;12775;46.994;15.498;2023-02-02T01:07:01;5.90;79.30
1988;DHT22;12775;46.994;15.498;2023-02-02T01:09:29;5.90;79.20
1988;DHT22;12775;46.994;15.498;2023-02-02T01:11:56;6.00;79.30
1988;DHT22;12775;46.994;15.498;2023-02-02T01:14:23;6.00;79.60
1988;DHT22;12775;46.994;15.498;2023-02-02T01:16:51;6.00;79.50
1988;DHT22;12775;46.994;15.498;2023-02-02T01:19:18;6.10;79.50
1988;DHT22;12775;46.994;15.498;2023-02-02T01:21:46;6.10;79.90
1988;DHT22;12775;46.994;15.498;2023-02-02T01:24:13;6.00;79.30
1988;DHT22;12775;46.994;15.498;2023-02-02T01:26:40;6.10;79.40
1988;DHT22;12775;46.994;15.498;2023-02-02T01:29:08;6.10;79.50
1988;DHT22;12775;46.994;15.498;2023-02-02T01:31:35;6.10;79.50
1988;DHT22;12775;46.994;15.498;2023-02-02T01:34:02;6.10;80.20
1988;DHT22;12775;46.994;15.498;2023-02-02T01:36:30;6.00;79.50
1988;DHT22;12775;46.994;15.498;2023-02-02T01:38:56;6.00;79.40
1988;DHT22;12775;46.994;15.498;2023-02-02T01:41:24;6.10;79.40
1988;DHT22;12775;46.994;15.498;2023-02-02T01:43:53;6.20;79.20
1988;DHT22;12775;46.994;15.498;2023-02-02T01:46:23;6.10;79.20
1988;DHT22;12775;46.994;15.498;2023-02-02T01:48:56;6.20;80.00
1988;DHT22;12775;46.994;15.498;2023-02-02T01:51:24;6.20;79.20
1988;DHT22;12775;46.994;15.498;2023-02-02T01:53:50;6.20;78.70
1988;DHT22;12775;46.994;15.498;2023-02-02T01:56:19;6.20;79.50
1988;DHT22;12775;46.994;15.498;2023-02-02T01:58:45;6.20;79.60
1988;DHT22;12775;46.994;15.498;2023-02-02T02:01:12;6.20;79.70
1988;DHT22;12775;46.994;15.498;2023-02-02T02:03:40;6.20;80.00
1988;DHT22;12775;46.994;15.498;2023-02-02T02:06:10;6.30;80.00
1988;DHT22;12775;46.994;15.498;2023-02-02T02:08:40;6.30;80.10
1988;DHT22;12775;46.994;15.498;2023-02-02T02:11:07;6.40;80.50
1988;DHT22;12775;46.994;15.498;2023-02-02T02:13:35;6.40;80.20
1988;DHT22;12775;46.994;15.498;2023-02-02T02:16:10;6.40;80.10
1988;DHT22;12775;46.994;15.498;2023-02-02T02:18:45;6.40;80.10
1988;DHT22;12775;46.994;15.498;2023-02-02T02:21:31;6.40;80.80
1988;DHT22;12775;46.994;15.498;2023-02-02T02:24:40;6.40;80.90
1988;DHT22;12775;46.994;15.498;2023-02-02T02:30:02;6.30;80.90
1988;DHT22;12775;46.994;15.498;2023-02-02T02:32:28;6.30;81.20
1988;DHT22;12775;46.994;15.498;2023-02-02T02:35:00;6.30;81.30
1988;DHT22;12775;46.994;15.498;2023-02-02T02:37:30;6.30;81.60
1988;DHT22;12775;46.994;15.498;2023-02-02T02:40:28;6.30;81.40
1988;DHT22;12775;46.994;15.498;2023-02-02T02:42:55;6.20;81.20
1988;DHT22;12775;46.994;15.498;2023-02-02T02:45:22;6.20;82.50
1988;DHT22;12775;46.994;15.498;2023-02-02T02:47:48;6.20;82.40
1988;DHT22;12775;46.994;15.498;2023-02-02T02:50:16;6.30;81.70
1988;DHT22;12775;46.994;15.498;2023-02-02T02:52:44;6.30;82.10
1988;DHT22;12775;46.994;15.498;2023-02-02T02:55:12;6.40;80.80
1988;DHT22;12775;46.994;15.498;2023-02-02T02:57:50;6.40;80.70
1988;DHT22;12775;46.994;15.498;2023-02-02T03:00:32;6.40;81.40
1988;DHT22;12775;46.994;15.498;2023-02-02T03:03:06;6.50;81.40
1988;DHT22;12775;46.994;15.498;2023-02-02T03:05:47;6.50;81.40
1988;DHT22;12775;46.994;15.498;2023-02-02T03:08:16;6.50;81.30
1988;DHT22;12775;46.994;15.498;2023-02-02T03:10:41;6.50;81.90
1988;DHT22;12775;46.994;15.498;2023-02-02T03:13:09;6.50;81.90
1988;DHT22;12775;46.994;15.498;2023-02-02T03:15:39;6.60;82.10
1988;DHT22;12775;46.994;15.498;2023-02-02T03:18:03;6.60;82.20
1988;DHT22;12775;46.994;15.498;2023-02-02T03:20:31;6.60;81.90
1988;DHT22;12775;46.994;15.498;2023-02-02T03:22:58;6.60;81.80
1988;DHT22;12775;46.994;15.498;2023-02-02T03:25:25;6.60;81.20
1988;DHT22;12775;46.994;15.498;2023-02-02T03:27:53;6.50;81.40
1988;DHT22;12775;46.994;15.498;2023-02-02T03:30:20;6.60;82.10
1988;DHT22;12775;46.994;15.498;2023-02-02T03:32:48;6.50;82.20
1988;DHT22;12775;46.994;15.498;2023-02-02T03:35:15;6.50;82.40
1988;DHT22;12775;46.994;15.498;2023-02-02T03:37:42;6.40;82.20
1988;DHT22;12775;46.994;15.498;2023-02-02T03:40:10;6.50;82.80
1988;DHT22;12775;46.994;15.498;2023-02-02T03:42:37;6.40;82.80
1988;DHT22;12775;46.994;15.498;2023-02-02T03:45:05;6.40;82.70
1988;DHT22;12775;46.994;15.498;2023-02-02T03:47:33;6.40;82.50
1988;DHT22;12775;46.994;15.498;2023-02-02T03:50:00;6.40;82.00
1988;DHT22;12775;46.994;15.498;2023-02-02T03:52:28;6.40;82.20
1988;DHT22;12775;46.994;15.498;2023-02-02T03:54:55;6.40;82.00
1988;DHT22;12775;46.994;15.498;2023-02-02T03:57:22;6.40;82.60
1988;DHT22;12775;46.994;15.498;2023-02-02T03:59:49;6.40;81.90
1988;DHT22;12775;46.994;15.498;2023-02-02T04:02:16;6.50;81.80
1988;DHT22;12775;46.994;15.498;2023-02-02T04:04:45;6.40;81.60
1988;DHT22;12775;46.994;15.498;2023-02-02T04:07:12;6.40;81.90
1988;DHT22;12775;46.994;15.498;2023-02-02T04:09:40;6.40;81.60
1988;DHT22;12775;46.994;15.498;2023-02-02T04:12:08;6.40;81.80
1988;DHT22;12775;46.994;15.498;2023-02-02T04:14:35;6.40;82.30
1988;DHT22;12775;46.994;15.498;2023-02-02T04:17:02;6.40;82.20
1988;DHT22;12775;46.994;15.498;2023-02-02T04:19:30;6.40;82.10
1988;DHT22;12775;46.994;15.498;2023-02-02T04:21:57;6.40;82.10
1988;DHT22;12775;46.994;15.498;2023-02-02T04:24:25;6.40;82.70
1988;DHT22;12775;46.994;15.498;2023-02-02T04:26:52;6.40;83.30
1988;DHT22;12775;46.994;15.498;2023-02-02T04:29:20;6.40;82.80
1988;DHT22;12775;46.994;15.498;2023-02-02T04:31:47;6.40;82.90
1988;DHT22;12775;46.994;15.498;2023-02-02T04:34:14;6.50;83.20
1988;DHT22;12775;46.994;15.498;2023-02-02T04:36:42;6.50;84.20
1988;DHT22;12775;46.994;15.498;2023-02-02T04:39:10;6.50;84.00
1988;DHT22;12775;46.994;15.498;2023-02-02T04:41:37;6.50;83.70
1988;DHT22;12775;46.994;15.498;2023-02-02T04:44:09;6.50;83.80
1988;DHT22;12775;46.994;15.498;2023-02-02T04:46:32;6.60;84.10
1988;DHT22;12775;46.994;15.498;2023-02-02T04:48:59;6.50;83.60
1988;DHT22;12775;46.994;15.498;2023-02-02T04:51:27;6.50;84.00
1988;DHT22;12775;46.994;15.498;2023-02-02T04:53:54;6.50;84.10
1988;DHT22;12775;46.994;15.498;2023-02-02T04:56:21;6.60;84.30
1988;DHT22;12775;46.994;15.498;2023-02-02T04:58:52;6.50;84.00
1988;DHT22;12775;46.994;15.498;2023-02-02T05:01:17;6.40;85.20
1988;DHT22;12775;46.994;15.498;2023-02-02T05:03:43;6.40;85.20
1988;DHT22;12775;46.994;15.498;2023-02-02T05:06:11;6.40;86.60
1988;DHT22;12775;46.994;15.498;2023-02-02T05:08:39;6.40;87.50
1988;DHT22;12775;46.994;15.498;2023-02-02T05:11:08;6.50;88.20
1988;DHT22;12775;46.994;15.498;2023-02-02T05:13:35;6.40;90.00
1988;DHT22;12775;46.994;15.498;2023-02-02T05:16:03;6.40;89.40
1988;DHT22;12775;46.994;15.498;2023-02-02T05:18:29;6.50;89.50
1988;DHT22;12775;46.994;15.498;2023-02-02T05:20:58;6.50;90.10
1988;DHT22;12775;46.994;15.498;2023-02-02T05:23:25;6.50;90.50
1988;DHT22;12775;46.994;15.498;2023-02-02T05:25:53;6.40;90.80
1988;DHT22;12775;46.994;15.498;2023-02-02T05:28:20;6.40;90.70
1988;DHT22;12775;46.994;15.498;2023-02-02T05:30:47;6.50;90.70
1988;DHT22;12775;46.994;15.498;2023-02-02T05:33:15;6.50;90.70
1988;DHT22;12775;46.994;15.498;2023-02-02T05:35:47;6.50;90.80
1988;DHT22;12775;46.994;15.498;2023-02-02T05:38:14;6.50;91.00
1988;DHT22;12775;46.994;15.498;2023-02-02T05:40:41;6.50;91.00
1988;DHT22;12775;46.994;15.498;2023-02-02T05:43:09;6.60;91.10
1988;DHT22;12775;46.994;15.498;2023-02-02T05:45:36;6.60;91.20
1988;DHT22;12775;46.994;15.498;2023-02-02T05:48:04;6.50;91.30
1988;DHT22;12775;46.994;15.498;2023-02-02T05:50:31;6.50;91.60
1988;DHT22;12775;46.994;15.498;2023-02-02T05:52:59;6.40;91.70
1988;DHT22;12775;46.994;15.498;2023-02-02T05:55:26;6.40;91.70
1988;DHT22;12775;46.994;15.498;2023-02-02T05:57:53;6.40;92.00
1988;DHT22;12775;46.994;15.498;2023-02-02T06:00:21;6.40;92.10
1988;DHT22;12775;46.994;15.498;2023-02-02T06:02:49;6.40;92.30
1988;DHT22;12775;46.994;15.498;2023-02-02T06:05:16;6.30;92.60
1988;DHT22;12775;46.994;15.498;2023-02-02T06:07:43;6.30;93.20
1988;DHT22;12775;46.994;15.498;2023-02-02T06:10:11;6.10;93.60
1988;DHT22;12775;46.994;15.498;2023-02-02T06:12:38;6.00;94.60
1988;DHT22;12775;46.994;15.498;2023-02-02T06:15:06;5.80;95.80
1988;DHT22;12775;46.994;15.498;2023-02-02T06:17:34;5.60;96.60
1988;DHT22;12775;46.994;15.498;2023-02-02T06:20:01;5.50;97.40
1988;DHT22;12775;46.994;15.498;2023-02-02T06:22:29;5.40;98.40
1988;DHT22;12775;46.994;15.498;2023-02-02T06:24:57;5.20;99.30
1988;DHT22;12775;46.994;15.498;2023-02-02T06:27:24;5.20;99.60
1988;DHT22;12775;46.994;15.498;2023-02-02T06:29:51;4.90;99.90
1988;DHT22;12775;46.994;15.498;2023-02-02T06:32:18;4.90;99.90
1988;DHT22;12775;46.994;15.498;2023-02-02T06:34:47;4.80;99.90
1988;DHT22;12775;46.994;15.498;2023-02-02T06:37:14;4.90;99.90
1988;DHT22;12775;46.994;15.498;2023-02-02T06:39:41;4.80;99.90
1988;DHT22;12775;46.994;15.498;2023-02-02T06:42:10;4.70;99.90
1988;DHT22;12775;46.994;15.498;2023-02-02T06:44:37;4.70;99.90
1988;DHT22;12775;46.994;15.498;2023-02-02T06:47:04;4.80;99.90
1988;DHT22;12775;46.994;15.498;2023-02-02T06:49:31;4.80;99.90
1988;DHT22;12775;46.994;15.498;2023-02-02T06:51:58;4.90;99.90
1988;DHT22;12775;46.994;15.498;2023-02-02T06:54:26;5.00;99.90
1988;DHT22;12775;46.994;15.498;2023-02-02T06:56:53;5.00;99.90
1988;DHT22;12775;46.994;15.498;2023-02-02T06:59:20;5.10;99.90
1988;DHT22;12775;46.994;15.498;2023-02-02T07:01:48;5.20;99.90
1988;DHT22;12775;46.994;15.498;2023-02-02T07:04:16;5.40;99.90
1988;DHT22;12775;46.994;15.498;2023-02-02T07:06:44;5.40;99.90
1988;DHT22;12775;46.994;15.498;2023-02-02T07:09:12;5.50;99.90
1988;DHT22;12775;46.994;15.498;2023-02-02T07:11:39;5.60;99.90
1988;DHT22;12775;46.994;15.498;2023-02-02T07:14:06;5.70;99.90
1988;DHT22;12775;46.994;15.498;2023-02-02T07:16:34;5.70;99.90
1988;DHT22;12775;46.994;15.498;2023-02-02T07:19:01;5.50;99.90
1988;DHT22;12775;46.994;15.498;2023-02-02T07:21:29;5.70;99.90
1988;DHT22;12775;46.994;15.498;2023-02-02T07:23:56;5.70;99.90
1988;DHT22;12775;46.994;15.498;2023-02-02T07:26:23;5.80;99.90
1988;DHT22;12775;46.994;15.498;2023-02-02T07:28:51;5.80;99.90
1988;DHT22;12775;46.994;15.498;2023-02-02T07:31:20;5.90;99.90
1988;DHT22;12775;46.994;15.498;2023-02-02T07:33:45;5.90;99.90
1988;DHT22;12775;46.994;15.498;2023-02-02T07:36:13;6.10;99.90
1988;DHT22;12775;46.994;15.498;2023-02-02T07:38:39;6.00;99.90
1988;DHT22;12775;46.994;15.498;2023-02-02T07:41:06;6.20;99.90
1988;DHT22;12775;46.994;15.498;2023-02-02T07:43:33;6.20;99.90
1988;DHT22;12775;46.994;15.498;2023-02-02T07:46:01;6.20;99.90
1988;DHT22;12775;46.994;15.498;2023-02-02T07:48:29;6.30;99.90
1988;DHT22;12775;46.994;15.498;2023-02-02T07:50:59;6.40;99.90
1988;DHT22;12775;46.994;15.498;2023-02-02T07:53:26;6.50;99.90
1988;DHT22;12775;46.994;15.498;2023-02-02T07:55:53;6.50;99.90
1988;DHT22;12775;46.994;15.498;2023-02-02T07:58:20;6.60;99.90
1988;DHT22;12775;46.994;15.498;2023-02-02T08:00:47;6.60;99.90
1988;DHT22;12775;46.994;15.498;2023-02-02T08:03:15;6.50;99.90
1988;DHT22;12775;46.994;15.498;2023-02-02T08:05:43;6.50;99.90
1988;DHT22;12775;46.994;15.498;2023-02-02T08:08:10;6.50;99.90
1988;DHT22;12775;46.994;15.498;2023-02-02T08:10:37;6.60;99.90
1988;DHT22;12775;46.994;15.498;2023-02-02T08:13:04;6.60;99.90
1988;DHT22;12775;46.994;15.498;2023-02-02T08:15:30;6.50;99.90
1988;DHT22;12775;46.994;15.498;2023-02-02T08:17:58;6.70;99.90
1988;DHT22;12775;46.994;15.498;2023-02-02T08:20:25;6.60;99.90
1988;DHT22;12775;46.994;15.498;2023-02-02T08:22:52;6.70;99.90
1988;DHT22;12775;46.994;15.498;2023-02-02T08:25:20;6.70;99.90
1988;DHT22;12775;46.994;15.498;2023-02-02T08:27:47;6.50;99.90
1988;DHT22;12775;46.994;15.498;2023-02-02T08:30:15;6.50;99.90
1988;DHT22;12775;46.994;15.498;2023-02-02T08:32:42;6.40;99.90
1988;DHT22;12775;46.994;15.498;2023-02-02T08:35:09;6.40;99.90
1988;DHT22;12775;46.994;15.498;2023-02-02T08:37:37;6.50;99.90
1988;DHT22;12775;46.994;15.498;2023-02-02T08:40:05;6.50;99.90
1988;DHT22;12775;46.994;15.498;2023-02-02T08:42:32;6.60;99.90
1988;DHT22;12775;46.994;15.498;2023-02-02T08:45:00;6.60;99.90
1988;DHT22;12775;46.994;15.498;2023-02-02T08:47:28;6.60;99.90
1988;DHT22;12775;46.994;15.498;2023-02-02T08:49:56;6.70;99.90
1988;DHT22;12775;46.994;15.498;2023-02-02T08:52:23;6.80;99.90
1988;DHT22;12775;46.994;15.498;2023-02-02T08:54:50;6.80;99.90
1988;DHT22;12775;46.994;15.498;2023-02-02T08:57:18;6.90;99.90
1988;DHT22;12775;46.994;15.498;2023-02-02T08:59:47;6.90;99.90
1988;DHT22;12775;46.994;15.498;2023-02-02T09:02:14;6.90;99.90
1988;DHT22;12775;46.994;15.498;2023-02-02T09:04:41;6.80;99.90
1988;DHT22;12775;46.994;15.498;2023-02-02T09:07:08;6.80;99.90
1988;DHT22;12775;46.994;15.498;2023-02-02T09:09:36;6.80;99.90
1988;DHT22;12775;46.994;15.498;2023-02-02T09:12:03;6.80;99.90
1988;DHT22;12775;46.994;15.498;2023-02-02T09:14:31;6.80;99.90
1988;DHT22;12775;46.994;15.498;2023-02-02T09:16:58;6.90;99.90
1988;DHT22;12775;46.994;15.498;2023-02-02T09:19:25;6.80;99.90
1988;DHT22;12775;46.994;15.498;2023-02-02T09:21:53;6.70;99.90
1988;DHT22;12775;46.994;15.498;2023-02-02T09:24:20;6.60;99.90
1988;DHT22;12775;46.994;15.498;2023-02-02T09:26:47;6.50;99.90
1988;DHT22;12775;46.994;15.498;2023-02-02T09:29:15;6.40;99.90
1988;DHT22;12775;46.994;15.498;2023-02-02T09:31:42;6.20;99.90
1988;DHT22;12775;46.994;15.498;2023-02-02T09:34:11;6.10;99.90
1988;DHT22;12775;46.994;15.498;2023-02-02T09:36:37;6.00;99.90
1988;DHT22;12775;46.994;15.498;2023-02-02T09:39:04;5.90;99.90
1988;DHT22;12775;46.994;15.498;2023-02-02T09:42:06;5.90;99.90
1988;DHT22;12775;46.994;15.498;2023-02-02T09:44:49;5.90;99.90
1988;DHT22;12775;46.994;15.498;2023-02-02T09:47:22;5.90;99.90
1988;DHT22;12775;46.994;15.498;2023-02-02T09:49:58;5.80;99.90
1988;DHT22;12775;46.994;15.498;2023-02-02T09:52:30;5.80;99.90
1988;DHT22;12775;46.994;15.498;2023-02-02T09:54:59;5.90;99.90
1988;DHT22;12775;46.994;15.498;2023-02-02T09:57:28;5.80;99.90
1988;DHT22;12775;46.994;15.498;2023-02-02T09:59:52;5.80;99.90
1988;DHT22;12775;46.994;15.498;2023-02-02T10:02:21;5.80;99.90
1988;DHT22;12775;46.994;15.498;2023-02-02T10:04:50;5.80;99.90
1988;DHT22;12775;46.994;15.498;2023-02-02T10:07:20;5.60;99.90
1988;DHT22;12775;46.994;15.498;2023-02-02T10:09:50;5.70;99.90
1988;DHT22;12775;46.994;15.498;2023-02-02T10:14:54;5.70;99.90
1988;DHT22;12775;46.994;15.498;2023-02-02T10:17:47;5.70;99.90
1988;DHT22;12775;46.994;15.498;2023-02-02T10:20:32;5.70;99.90
1988;DHT22;12775;46.994;15.498;2023-02-02T10:22:57;5.60;99.90
1988;DHT22;12775;46.994;15.498;2023-02-02T10:25:25;5.70;99.90
1988;DHT22;12775;46.994;15.498;2023-02-02T10:27:55;5.70;99.90
1988;DHT22;12775;46.994;15.498;2023-02-02T10:30:24;5.70;99.90
1988;DHT22;12775;46.994;15.498;2023-02-02T10:32:48;5.80;99.90
1988;DHT22;12775;46.994;15.498;2023-02-02T10:35:34;5.70;99.90
1988;DHT22;12775;46.994;15.498;2023-02-02T10:40:58;6.00;99.90
1988;DHT22;12775;46.994;15.498;2023-02-02T10:43:31;6.10;99.90
1988;DHT22;12775;46.994;15.498;2023-02-02T10:46:00;6.30;99.90
1988;DHT22;12775;46.994;15.498;2023-02-02T10:48:28;6.40;99.90
1988;DHT22;12775;46.994;15.498;2023-02-02T10:50:55;6.50;99.90
1988;DHT22;12775;46.994;15.498;2023-02-02T10:53:22;6.60;99.90
1988;DHT22;12775;46.994;15.498;2023-02-02T10:55:52;6.50;99.90
1988;DHT22;12775;46.994;15.498;2023-02-02T10:58:23;6.60;99.90
1988;DHT22;12775;46.994;15.498;2023-02-02T11:00:53;6.60;99.90
1988;DHT22;12775;46.994;15.498;2023-02-02T11:03:21;6.70;99.90
1988;DHT22;12775;46.994;15.498;2023-02-02T11:05:49;6.80;99.90
1988;DHT22;12775;46.994;15.498;2023-02-02T11:08:27;6.90;99.90
1988;DHT22;12775;46.994;15.498;2023-02-02T11:10:51;6.80;99.90
1988;DHT22;12775;46.994;15.498;2023-02-02T11:13:23;7.00;99.90
1988;DHT22;12775;46.994;15.498;2023-02-02T11:15:45;7.10;99.90
1988;DHT22;12775;46.994;15.498;2023-02-02T11:18:13;7.10;99.90
1988;DHT22;12775;46.994;15.498;2023-02-02T11:20:40;7.20;99.90
1988;DHT22;12775;46.994;15.498;2023-02-02T11:23:08;7.30;99.90
1988;DHT22;12775;46.994;15.498;2023-02-02T11:25:36;7.30;99.90
1988;DHT22;12775;46.994;15.498;2023-02-02T11:28:10;7.40;99.90
1988;DHT22;12775;46.994;15.498;2023-02-02T11:30:38;7.50;99.90
1988;DHT22;12775;46.994;15.498;2023-02-02T11:33:26;7.60;99.90
1988;DHT22;12775;46.994;15.498;2023-02-02T11:35:55;7.50;99.90
1988;DHT22;12775;46.994;15.498;2023-02-02T11:38:20;7.60;99.90
1988;DHT22;12775;46.994;15.498;2023-02-02T11:41:06;7.60;99.90
1988;DHT22;12775;46.994;15.498;2023-02-02T11:43:35;7.70;99.90
1988;DHT22;12775;46.994;15.498;2023-02-02T11:46:03;7.80;99.90
1988;DHT22;12775;46.994;15.498;2023-02-02T11:48:33;7.80;99.90
1988;DHT22;12775;46.994;15.498;2023-02-02T11:50:59;8.00;99.90
1988;DHT22;12775;46.994;15.498;2023-02-02T11:53:29;8.10;99.90
1988;DHT22;12775;46.994;15.498;2023-02-02T11:55:56;8.20;99.90
1988;DHT22;12775;46.994;15.498;2023-02-02T11:58:25;8.20;99.90
1988;DHT22;12775;46.994;15.498;2023-02-02T12:00:51;8.10;99.90
1988;DHT22;12775;46.994;15.498;2023-02-02T12:03:23;8.30;99.90
1988;DHT22;12775;46.994;15.498;2023-02-02T12:05:49;8.20;99.90
1988;DHT22;12775;46.994;15.498;2023-02-02T12:08:17;8.20;99.90
1988;DHT22;12775;46.994;15.498;2023-02-02T12:10:49;8.20;99.90
1988;DHT22;12775;46.994;15.498;2023-02-02T12:13:34;8.30;99.90
1988;DHT22;12775;46.994;15.498;2023-02-02T12:16:03;8.40;99.90
1988;DHT22;12775;46.994;15.498;2023-02-02T12:18:48;8.50;99.90
1988;DHT22;12775;46.994;15.498;2023-02-02T12:21:16;8.60;99.90
1988;DHT22;12775;46.994;15.498;2023-02-02T12:23:50;8.50;99.40
1988;DHT22;12775;46.994;15.498;2023-02-02T12:26:22;8.60;99.80
1988;DHT22;12775;46.994;15.498;2023-02-02T12:29:10;8.70;99.90
1988;DHT22;12775;46.994;15.498;2023-02-02T12:31:45;8.70;99.90
1988;DHT22;12775;46.994;15.498;2023-02-02T12:36:48;8.60;99.90
1988;DHT22;12775;46.994;15.498;2023-02-02T12:39:30;8.60;99.90
1988;DHT22;12775;46.994;15.498;2023-02-02T12:43:05;8.70;99.90
1988;DHT22;12775;46.994;15.498;2023-02-02T12:49:04;8.60;99.90
1988;DHT22;12775;46.994;15.498;2023-02-02T12:50:53;8.60;99.90
1988;DHT22;12775;46.994;15.498;2023-02-02T12:53:25;8.70;99.90
1988;DHT22;12775;46.994;15.498;2023-02-02T12:55:56;8.70;99.70
1988;DHT22;12775;46.994;15.498;2023-02-02T12:58:26;8.60;99.40
1988;DHT22;12775;46.994;15.498;2023-02-02T13:01:17;8.70;99.90
1988;DHT22;12775;46.994;15.498;2023-02-02T13:04:03;8.60;99.90
1988;DHT22;12775;46.994;15.498;2023-02-02T13:07:03;8.80;99.70
1988;DHT22;12775;46.994;15.498;2023-02-02T13:09:39;8.70;99.70
1988;DHT22;12775;46.994;15.498;2023-02-02T13:12:08;8.70;99.70
1988;DHT22;12775;46.994;15.498;2023-02-02T13:14:40;8.80;99.90
1988;DHT22;12775;46.994;15.498;2023-02-02T13:19:51;8.80;99.20
1988;DHT22;12775;46.994;15.498;2023-02-02T13:22:21;8.80;99.70
1988;DHT22;12775;46.994;15.498;2023-02-02T13:24:47;8.80;99.90
1988;DHT22;12775;46.994;15.498;2023-02-02T13:27:18;8.80;99.70
1988;DHT22;12775;46.994;15.498;2023-02-02T13:29:50;8.90;99.50
1988;DHT22;12775;46.994;15.498;2023-02-02T13:32:30;8.90;99.40
1988;DHT22;12775;46.994;15.498;2023-02-02T13:35:00;8.90;99.40
1988;DHT22;12775;46.994;15.498;2023-02-02T13:37:41;8.90;99.30
1988;DHT22;12775;46.994;15.498;2023-02-02T13:40:19;8.90;99.30
1988;DHT22;12775;46.994;15.498;2023-02-02T13:42:45;9.00;99.20
1988;DHT22;12775;46.994;15.498;2023-02-02T13:45:31;8.90;99.20
1988;DHT22;12775;46.994;15.498;2023-02-02T13:47:58;8.90;99.10
1988;DHT22;12775;46.994;15.498;2023-02-02T13:50:22;8.80;99.00
1988;DHT22;12775;46.994;15.498;2023-02-02T13:53:36;8.90;98.90
1988;DHT22;12775;46.994;15.498;2023-02-02T13:56:20;8.90;98.90
1988;DHT22;12775;46.994;15.498;2023-02-02T14:01:08;8.80;98.60
1988;DHT22;12775;46.994;15.498;2023-02-02T14:03:38;8.80;98.80
1988;DHT22;12775;46.994;15.498;2023-02-02T14:06:16;8.80;98.80
1988;DHT22;12775;46.994;15.498;2023-02-02T14:08:50;8.80;98.70
1988;DHT22;12775;46.994;15.498;2023-02-02T14:11:20;8.80;98.80
1988;DHT22;12775;46.994;15.498;2023-02-02T14:13:48;8.70;98.90
1988;DHT22;12775;46.994;15.498;2023-02-02T14:16:23;8.70;99.00
1988;DHT22;12775;46.994;15.498;2023-02-02T14:18:51;8.70;99.00
1988;DHT22;12775;46.994;15.498;2023-02-02T14:24:51;8.70;98.90
1988;DHT22;12775;46.994;15.498;2023-02-02T14:27:38;8.60;99.20
1988;DHT22;12775;46.994;15.498;2023-02-02T14:29:58;8.60;99.10
1988;DHT22;12775;46.994;15.498;2023-02-02T14:32:28;8.60;99.20
1988;DHT22;12775;46.994;15.498;2023-02-02T14:34:54;8.60;99.20
1988;DHT22;12775;46.994;15.498;2023-02-02T14:37:35;8.60;99.20
1988;DHT22;12775;46.994;15.498;2023-02-02T14:40:18;8.50;99.40
1988;DHT22;12775;46.994;15.498;2023-02-02T14:43:03;8.50;99.70
1988;DHT22;12775;46.994;15.498;2023-02-02T14:45:35;8.40;99.60
1988;DHT22;12775;46.994;15.498;2023-02-02T14:48:20;8.30;99.80
1988;DHT22;12775;46.994;15.498;2023-02-02T14:50:49;8.30;99.90
1988;DHT22;12775;46.994;15.498;2023-02-02T14:53:17;8.20;99.90
1988;DHT22;12775;46.994;15.498;2023-02-02T14:56:04;8.20;99.90
1988;DHT22;12775;46.994;15.498;2023-02-02T14:58:33;8.20;99.90
1988;DHT22;12775;46.994;15.498;2023-02-02T15:03:35;8.10;99.90
1988;DHT22;12775;46.994;15.498;2023-02-02T15:08:43;7.70;99.90
1988;DHT22;12775;46.994;15.498;2023-02-02T15:11:10;7.80;99.90
1988;DHT22;12775;46.994;15.498;2023-02-02T15:13:44;7.60;99.90
1988;DHT22;12775;46.994;15.498;2023-02-02T15:16:14;7.60;99.90
1988;DHT22;12775;46.994;15.498;2023-02-02T15:18:41;7.60;99.90
1988;DHT22;12775;46.994;15.498;2023-02-02T15:21:06;7.30;99.90
1988;DHT22;12775;46.994;15.498;2023-02-02T15:23:41;7.30;99.90
1988;DHT22;12775;46.994;15.498;2023-02-02T15:26:14;7.10;99.90
1988;DHT22;12775;46.994;15.498;2023-02-02T15:28:44;6.80;99.90
1988;DHT22;12775;46.994;15.498;2023-02-02T15:31:21;6.80;99.90
1988;DHT22;12775;46.994;15.498;2023-02-02T15:33:46;6.70;99.90
1988;DHT22;12775;46.994;15.498;2023-02-02T15:36:22;6.60;99.90
1988;DHT22;12775;46.994;15.498;2023-02-02T15:38:48;6.60;99.90
1988;DHT22;12775;46.994;15.498;2023-02-02T15:41:24;6.50;99.90
1988;DHT22;12775;46.994;15.498;2023-02-02T15:43:50;6.40;99.90
1988;DHT22;12775;46.994;15.498;2023-02-02T15:46:20;6.30;99.90
1988;DHT22;12775;46.994;15.498;2023-02-02T15:48:47;6.30;99.90
1988;DHT22;12775;46.994;15.498;2023-02-02T15:51:15;6.30;99.90
1988;DHT22;12775;46.994;15.498;2023-02-02T15:53:46;6.30;99.90
1988;DHT22;12775;46.994;15.498;2023-02-02T15:56:19;6.30;99.90
1988;DHT22;12775;46.994;15.498;2023-02-02T15:58:47;6.20;99.90
1988;DHT22;12775;46.994;15.498;2023-02-02T16:01:16;6.20;99.90
1988;DHT22;12775;46.994;15.498;2023-02-02T16:03:56;6.20;99.90
1988;DHT22;12775;46.994;15.498;2023-02-02T16:06:21;6.10;99.90
1988;DHT22;12775;46.994;15.498;2023-02-02T16:08:49;6.00;99.90
1988;DHT22;12775;46.994;15.498;2023-02-02T16:11:17;6.10;99.90
1988;DHT22;12775;46.994;15.498;2023-02-02T16:13:55;6.10;99.90
1988;DHT22;12775;46.994;15.498;2023-02-02T16:16:24;6.10;99.90
1988;DHT22;12775;46.994;15.498;2023-02-02T16:19:09;5.90;99.90
1988;DHT22;12775;46.994;15.498;2023-02-02T16:21:31;5.90;99.90
1988;DHT22;12775;46.994;15.498;2023-02-02T16:23:58;5.90;99.90
1988;DHT22;12775;46.994;15.498;2023-02-02T16:26:27;5.80;99.90
1988;DHT22;12775;46.994;15.498;2023-02-02T16:28:54;6.00;99.90